sensor_id;sensor_type;location;lat;lon;timestamp;P1;durP1;ratioP1;P2;durP2;ratioP2
703;SDS011;335;48.694;9.120;2022-08-14T00:00:51;3.60;;;3.40;;
703;SDS011;335;48.694;9.120;2022-08-14T00:03:23;3.90;;;3.70;;
703;SDS011;335;48.694;9.120;2022-08-14T00:05:50;3.80;;;3.50;;
703;SDS011;335;48.694;9.120;2022-08-14T00:08:17;3.30;;;3.10;;
703;SDS011;335;48.694;9.120;2022-08-14T00:10:42;3.27;;;3.10;;
703;SDS011;335;48.694;9.120;2022-08-14T00:13:08;3.00;;;2.80;;
703;SDS011;335;48.694;9.120;2022-08-14T00:15:35;4.20;;;2.93;;
703;SDS011;335;48.694;9.120;2022-08-14T00:18:03;2.70;;;2.60;;
703;SDS011;335;48.694;9.120;2022-08-14T00:20:31;3.30;;;3.20;;
703;SDS011;335;48.694;9.120;2022-08-14T00:22:57;2.80;;;2.70;;
703;SDS011;335;48.694;9.120;2022-08-14T00:25:23;2.67;;;2.57;;
703;SDS011;335;48.694;9.120;2022-08-14T00:27:48;2.80;;;2.67;;
703;SDS011;335;48.694;9.120;2022-08-14T00:30:14;2.53;;;2.43;;
703;SDS011;335;48.694;9.120;2022-08-14T00:32:40;2.57;;;2.47;;
703;SDS011;335;48.694;9.120;2022-08-14T00:35:06;3.10;;;2.70;;
703;SDS011;335;48.694;9.120;2022-08-14T00:37:32;2.73;;;2.60;;
703;SDS011;335;48.694;9.120;2022-08-14T00:39:58;3.80;;;3.60;;
703;SDS011;335;48.694;9.120;2022-08-14T00:42:24;2.63;;;2.53;;
703;SDS011;335;48.694;9.120;2022-08-14T00:44:50;3.20;;;3.03;;
703;SDS011;335;48.694;9.120;2022-08-14T00:47:15;3.53;;;3.30;;
703;SDS011;335;48.694;9.120;2022-08-14T00:49:42;3.13;;;2.87;;
703;SDS011;335;48.694;9.120;2022-08-14T00:52:12;3.00;;;2.80;;
703;SDS011;335;48.694;9.120;2022-08-14T00:54:40;2.70;;;2.60;;
703;SDS011;335;48.694;9.120;2022-08-14T00:57:06;3.10;;;2.90;;
703;SDS011;335;48.694;9.120;2022-08-14T00:59:31;3.43;;;3.20;;
703;SDS011;335;48.694;9.120;2022-08-14T01:01:58;3.20;;;3.00;;
703;SDS011;335;48.694;9.120;2022-08-14T01:04:25;2.77;;;2.67;;
703;SDS011;335;48.694;9.120;2022-08-14T01:06:52;3.33;;;3.13;;
703;SDS011;335;48.694;9.120;2022-08-14T01:09:18;4.10;;;3.27;;
703;SDS011;335;48.694;9.120;2022-08-14T01:11:47;3.50;;;2.87;;
703;SDS011;335;48.694;9.120;2022-08-14T01:14:13;3.37;;;3.07;;
703;SDS011;335;48.694;9.120;2022-08-14T01:16:38;3.03;;;2.77;;
703;SDS011;335;48.694;9.120;2022-08-14T01:19:04;2.90;;;2.80;;
703;SDS011;335;48.694;9.120;2022-08-14T01:21:48;3.43;;;3.23;;
703;SDS011;335;48.694;9.120;2022-08-14T01:24:14;3.83;;;3.13;;
703;SDS011;335;48.694;9.120;2022-08-14T01:26:39;3.80;;;3.50;;
703;SDS011;335;48.694;9.120;2022-08-14T01:29:06;2.80;;;2.70;;
703;SDS011;335;48.694;9.120;2022-08-14T01:31:32;3.43;;;3.23;;
703;SDS011;335;48.694;9.120;2022-08-14T01:33:59;3.73;;;3.37;;
703;SDS011;335;48.694;9.120;2022-08-14T01:36:27;3.00;;;2.80;;
703;SDS011;335;48.694;9.120;2022-08-14T01:38:58;2.60;;;2.50;;
703;SDS011;335;48.694;9.120;2022-08-14T01:41:24;3.83;;;3.63;;
703;SDS011;335;48.694;9.120;2022-08-14T01:43:53;3.10;;;2.97;;
703;SDS011;335;48.694;9.120;2022-08-14T01:46:25;2.90;;;2.70;;
703;SDS011;335;48.694;9.120;2022-08-14T01:48:51;3.50;;;3.00;;
703;SDS011;335;48.694;9.120;2022-08-14T01:51:18;3.10;;;3.00;;
703;SDS011;335;48.694;9.120;2022-08-14T01:53:47;4.03;;;3.73;;
703;SDS011;335;48.694;9.120;2022-08-14T01:56:16;3.40;;;3.20;;
703;SDS011;335;48.694;9.120;2022-08-14T01:58:42;3.73;;;3.50;;
703;SDS011;335;48.694;9.120;2022-08-14T02:01:12;3.40;;;3.20;;
703;SDS011;335;48.694;9.120;2022-08-14T02:03:39;3.00;;;2.90;;
703;SDS011;335;48.694;9.120;2022-08-14T02:06:06;3.40;;;3.17;;
703;SDS011;335;48.694;9.120;2022-08-14T02:08:32;3.47;;;3.37;;
703;SDS011;335;48.694;9.120;2022-08-14T02:11:01;3.20;;;3.10;;
703;SDS011;335;48.694;9.120;2022-08-14T02:13:47;3.67;;;3.40;;
703;SDS011;335;48.694;9.120;2022-08-14T02:16:24;3.60;;;3.37;;
703;SDS011;335;48.694;9.120;2022-08-14T02:18:58;3.37;;;3.27;;
703;SDS011;335;48.694;9.120;2022-08-14T02:21:25;3.33;;;3.13;;
703;SDS011;335;48.694;9.120;2022-08-14T02:23:53;5.00;;;3.23;;
703;SDS011;335;48.694;9.120;2022-08-14T02:26:27;3.30;;;3.10;;
703;SDS011;335;48.694;9.120;2022-08-14T02:28:56;3.13;;;2.93;;
703;SDS011;335;48.694;9.120;2022-08-14T02:31:35;3.00;;;2.90;;
703;SDS011;335;48.694;9.120;2022-08-14T02:34:03;3.70;;;3.50;;
703;SDS011;335;48.694;9.120;2022-08-14T02:36:37;3.23;;;3.13;;
703;SDS011;335;48.694;9.120;2022-08-14T02:39:05;3.50;;;3.20;;
703;SDS011;335;48.694;9.120;2022-08-14T02:41:31;3.30;;;3.07;;
703;SDS011;335;48.694;9.120;2022-08-14T02:43:58;4.13;;;3.87;;
703;SDS011;335;48.694;9.120;2022-08-14T02:46:23;3.63;;;3.43;;
703;SDS011;335;48.694;9.120;2022-08-14T02:48:49;3.27;;;3.17;;
703;SDS011;335;48.694;9.120;2022-08-14T02:51:14;3.27;;;3.03;;
703;SDS011;335;48.694;9.120;2022-08-14T02:53:40;3.13;;;3.03;;
703;SDS011;335;48.694;9.120;2022-08-14T02:56:09;3.47;;;3.27;;
703;SDS011;335;48.694;9.120;2022-08-14T02:58:38;3.60;;;3.50;;
703;SDS011;335;48.694;9.120;2022-08-14T03:01:05;3.33;;;3.20;;
703;SDS011;335;48.694;9.120;2022-08-14T03:03:32;3.67;;;3.47;;
703;SDS011;335;48.694;9.120;2022-08-14T03:05:57;3.67;;;3.37;;
703;SDS011;335;48.694;9.120;2022-08-14T03:08:23;3.57;;;3.37;;
703;SDS011;335;48.694;9.120;2022-08-14T03:10:54;3.23;;;3.13;;
703;SDS011;335;48.694;9.120;2022-08-14T03:13:20;3.93;;;3.63;;
703;SDS011;335;48.694;9.120;2022-08-14T03:15:45;3.37;;;3.23;;
703;SDS011;335;48.694;9.120;2022-08-14T03:18:12;3.23;;;3.13;;
703;SDS011;335;48.694;9.120;2022-08-14T03:20:38;3.37;;;3.23;;
703;SDS011;335;48.694;9.120;2022-08-14T03:23:03;3.70;;;3.53;;
703;SDS011;335;48.694;9.120;2022-08-14T03:25:28;3.40;;;3.20;;
703;SDS011;335;48.694;9.120;2022-08-14T03:27:58;4.10;;;3.90;;
703;SDS011;335;48.694;9.120;2022-08-14T03:30:28;3.53;;;3.40;;
703;SDS011;335;48.694;9.120;2022-08-14T03:32:55;3.57;;;3.27;;
703;SDS011;335;48.694;9.120;2022-08-14T03:35:21;4.00;;;3.80;;
703;SDS011;335;48.694;9.120;2022-08-14T03:37:46;3.57;;;3.47;;
703;SDS011;335;48.694;9.120;2022-08-14T03:40:12;4.47;;;4.27;;
703;SDS011;335;48.694;9.120;2022-08-14T03:42:37;3.80;;;3.60;;
703;SDS011;335;48.694;9.120;2022-08-14T03:45:03;3.80;;;3.47;;
703;SDS011;335;48.694;9.120;2022-08-14T03:47:30;4.23;;;4.00;;
703;SDS011;335;48.694;9.120;2022-08-14T03:49:56;4.00;;;3.80;;
703;SDS011;335;48.694;9.120;2022-08-14T03:52:22;4.00;;;3.70;;
703;SDS011;335;48.694;9.120;2022-08-14T03:54:48;4.27;;;4.07;;
703;SDS011;335;48.694;9.120;2022-08-14T03:57:13;4.20;;;4.00;;
703;SDS011;335;48.694;9.120;2022-08-14T03:59:39;4.00;;;3.77;;
703;SDS011;335;48.694;9.120;2022-08-14T04:02:04;4.20;;;4.00;;
703;SDS011;335;48.694;9.120;2022-08-14T04:04:30;3.73;;;3.63;;
703;SDS011;335;48.694;9.120;2022-08-14T04:06:55;3.90;;;3.70;;
703;SDS011;335;48.694;9.120;2022-08-14T04:09:21;4.53;;;4.30;;
703;SDS011;335;48.694;9.120;2022-08-14T04:11:46;4.43;;;4.13;;
703;SDS011;335;48.694;9.120;2022-08-14T04:14:11;4.17;;;3.70;;
703;SDS011;335;48.694;9.120;2022-08-14T04:16:38;4.17;;;3.97;;
703;SDS011;335;48.694;9.120;2022-08-14T04:19:06;5.27;;;3.50;;
703;SDS011;335;48.694;9.120;2022-08-14T04:21:32;3.90;;;3.60;;
703;SDS011;335;48.694;9.120;2022-08-14T04:23:58;4.33;;;4.07;;
703;SDS011;335;48.694;9.120;2022-08-14T04:26:25;4.20;;;4.00;;
703;SDS011;335;48.694;9.120;2022-08-14T04:28:51;3.50;;;3.30;;
703;SDS011;335;48.694;9.120;2022-08-14T04:31:18;3.30;;;3.20;;
703;SDS011;335;48.694;9.120;2022-08-14T04:33:44;4.60;;;4.30;;
703;SDS011;335;48.694;9.120;2022-08-14T04:36:10;4.40;;;4.00;;
703;SDS011;335;48.694;9.120;2022-08-14T04:38:35;4.30;;;4.00;;
703;SDS011;335;48.694;9.120;2022-08-14T04:41:19;3.40;;;3.30;;
703;SDS011;335;48.694;9.120;2022-08-14T04:44:04;3.77;;;3.57;;
703;SDS011;335;48.694;9.120;2022-08-14T04:46:30;3.87;;;3.57;;
703;SDS011;335;48.694;9.120;2022-08-14T04:48:57;3.97;;;3.77;;
703;SDS011;335;48.694;9.120;2022-08-14T04:51:23;4.03;;;3.83;;
703;SDS011;335;48.694;9.120;2022-08-14T04:53:50;3.70;;;3.50;;
703;SDS011;335;48.694;9.120;2022-08-14T04:56:17;3.90;;;3.70;;
703;SDS011;335;48.694;9.120;2022-08-14T04:58:47;4.00;;;3.80;;
703;SDS011;335;48.694;9.120;2022-08-14T05:01:13;4.10;;;3.90;;
703;SDS011;335;48.694;9.120;2022-08-14T05:03:39;4.07;;;3.87;;
703;SDS011;335;48.694;9.120;2022-08-14T05:06:06;3.87;;;3.57;;
703;SDS011;335;48.694;9.120;2022-08-14T05:08:33;3.87;;;3.67;;
703;SDS011;335;48.694;9.120;2022-08-14T05:11:00;3.60;;;3.30;;
703;SDS011;335;48.694;9.120;2022-08-14T05:13:27;4.13;;;3.10;;
703;SDS011;335;48.694;9.120;2022-08-14T05:15:54;3.97;;;3.77;;
703;SDS011;335;48.694;9.120;2022-08-14T05:18:23;4.30;;;4.00;;
703;SDS011;335;48.694;9.120;2022-08-14T05:20:51;3.67;;;3.50;;
703;SDS011;335;48.694;9.120;2022-08-14T05:23:19;4.80;;;4.50;;
703;SDS011;335;48.694;9.120;2022-08-14T05:25:51;5.40;;;5.10;;
703;SDS011;335;48.694;9.120;2022-08-14T05:28:24;4.47;;;4.27;;
703;SDS011;335;48.694;9.120;2022-08-14T05:30:52;5.27;;;4.87;;
703;SDS011;335;48.694;9.120;2022-08-14T05:33:19;5.47;;;5.17;;
703;SDS011;335;48.694;9.120;2022-08-14T05:35:47;5.53;;;5.23;;
703;SDS011;335;48.694;9.120;2022-08-14T05:38:13;6.17;;;5.67;;
703;SDS011;335;48.694;9.120;2022-08-14T05:40:41;7.37;;;6.87;;
703;SDS011;335;48.694;9.120;2022-08-14T05:43:07;5.03;;;4.83;;
703;SDS011;335;48.694;9.120;2022-08-14T05:45:32;5.27;;;4.87;;
703;SDS011;335;48.694;9.120;2022-08-14T05:47:59;6.33;;;5.83;;
703;SDS011;335;48.694;9.120;2022-08-14T05:50:25;5.90;;;5.50;;
703;SDS011;335;48.694;9.120;2022-08-14T05:52:50;4.17;;;3.97;;
703;SDS011;335;48.694;9.120;2022-08-14T05:55:16;4.90;;;4.50;;
703;SDS011;335;48.694;9.120;2022-08-14T05:57:48;4.03;;;3.83;;
703;SDS011;335;48.694;9.120;2022-08-14T06:00:14;3.90;;;3.60;;
703;SDS011;335;48.694;9.120;2022-08-14T06:02:40;3.57;;;3.33;;
703;SDS011;335;48.694;9.120;2022-08-14T06:05:05;4.60;;;4.40;;
703;SDS011;335;48.694;9.120;2022-08-14T06:07:34;3.57;;;3.47;;
703;SDS011;335;48.694;9.120;2022-08-14T06:10:03;4.47;;;4.20;;
703;SDS011;335;48.694;9.120;2022-08-14T06:12:29;4.43;;;4.23;;
703;SDS011;335;48.694;9.120;2022-08-14T06:14:55;4.67;;;4.40;;
703;SDS011;335;48.694;9.120;2022-08-14T06:17:20;3.93;;;3.73;;
703;SDS011;335;48.694;9.120;2022-08-14T06:19:46;4.90;;;4.60;;
703;SDS011;335;48.694;9.120;2022-08-14T06:22:11;4.97;;;4.57;;
703;SDS011;335;48.694;9.120;2022-08-14T06:24:36;4.40;;;4.10;;
703;SDS011;335;48.694;9.120;2022-08-14T06:27:02;3.80;;;3.60;;
703;SDS011;335;48.694;9.120;2022-08-14T06:29:28;4.90;;;4.50;;
703;SDS011;335;48.694;9.120;2022-08-14T06:31:53;4.33;;;4.10;;
703;SDS011;335;48.694;9.120;2022-08-14T06:34:19;3.13;;;2.93;;
703;SDS011;335;48.694;9.120;2022-08-14T06:36:44;3.90;;;3.70;;
703;SDS011;335;48.694;9.120;2022-08-14T06:39:09;4.03;;;3.83;;
703;SDS011;335;48.694;9.120;2022-08-14T06:41:35;4.00;;;3.80;;
703;SDS011;335;48.694;9.120;2022-08-14T06:44:00;3.53;;;3.27;;
703;SDS011;335;48.694;9.120;2022-08-14T06:46:27;3.57;;;3.37;;
703;SDS011;335;48.694;9.120;2022-08-14T06:48:53;3.73;;;3.53;;
703;SDS011;335;48.694;9.120;2022-08-14T06:51:18;3.30;;;3.10;;
703;SDS011;335;48.694;9.120;2022-08-14T06:53:44;3.27;;;3.03;;
703;SDS011;335;48.694;9.120;2022-08-14T06:56:12;2.67;;;2.47;;
703;SDS011;335;48.694;9.120;2022-08-14T06:58:37;3.97;;;3.40;;
703;SDS011;335;48.694;9.120;2022-08-14T07:01:03;4.00;;;3.70;;
703;SDS011;335;48.694;9.120;2022-08-14T07:03:47;2.87;;;2.77;;
703;SDS011;335;48.694;9.120;2022-08-14T07:06:31;3.23;;;3.13;;
703;SDS011;335;48.694;9.120;2022-08-14T07:08:56;3.70;;;3.50;;
703;SDS011;335;48.694;9.120;2022-08-14T07:11:21;3.73;;;3.47;;
703;SDS011;335;48.694;9.120;2022-08-14T07:13:46;3.80;;;3.57;;
703;SDS011;335;48.694;9.120;2022-08-14T07:16:12;3.20;;;3.10;;
703;SDS011;335;48.694;9.120;2022-08-14T07:18:37;3.10;;;3.00;;
703;SDS011;335;48.694;9.120;2022-08-14T07:21:04;2.77;;;2.67;;
703;SDS011;335;48.694;9.120;2022-08-14T07:23:30;3.03;;;2.77;;
703;SDS011;335;48.694;9.120;2022-08-14T07:25:57;2.50;;;2.40;;
703;SDS011;335;48.694;9.120;2022-08-14T07:28:24;2.77;;;2.60;;
703;SDS011;335;48.694;9.120;2022-08-14T07:30:52;2.77;;;2.57;;
703;SDS011;335;48.694;9.120;2022-08-14T07:33:22;2.90;;;2.70;;
703;SDS011;335;48.694;9.120;2022-08-14T07:35:49;2.60;;;2.50;;
703;SDS011;335;48.694;9.120;2022-08-14T07:38:18;2.50;;;2.40;;
703;SDS011;335;48.694;9.120;2022-08-14T07:40:45;2.53;;;2.43;;
703;SDS011;335;48.694;9.120;2022-08-14T07:43:12;2.10;;;2.00;;
703;SDS011;335;48.694;9.120;2022-08-14T07:45:38;2.27;;;2.10;;
703;SDS011;335;48.694;9.120;2022-08-14T07:48:04;7.50;;;2.57;;
703;SDS011;335;48.694;9.120;2022-08-14T07:50:30;5.00;;;2.53;;
703;SDS011;335;48.694;9.120;2022-08-14T07:52:56;2.57;;;2.37;;
703;SDS011;335;48.694;9.120;2022-08-14T07:55:22;2.80;;;2.70;;
703;SDS011;335;48.694;9.120;2022-08-14T07:57:47;2.40;;;2.30;;
703;SDS011;335;48.694;9.120;2022-08-14T08:00:15;3.57;;;2.60;;
703;SDS011;335;48.694;9.120;2022-08-14T08:02:43;2.47;;;2.30;;
703;SDS011;335;48.694;9.120;2022-08-14T08:05:12;3.43;;;2.40;;
703;SDS011;335;48.694;9.120;2022-08-14T08:07:39;2.10;;;2.00;;
703;SDS011;335;48.694;9.120;2022-08-14T08:10:07;2.37;;;2.23;;
703;SDS011;335;48.694;9.120;2022-08-14T08:12:57;2.20;;;2.00;;
703;SDS011;335;48.694;9.120;2022-08-14T08:15:24;2.00;;;1.90;;
703;SDS011;335;48.694;9.120;2022-08-14T08:17:51;2.10;;;1.90;;
703;SDS011;335;48.694;9.120;2022-08-14T08:20:17;1.83;;;1.73;;
703;SDS011;335;48.694;9.120;2022-08-14T08:22:44;2.57;;;2.20;;
703;SDS011;335;48.694;9.120;2022-08-14T08:25:10;3.87;;;2.17;;
703;SDS011;335;48.694;9.120;2022-08-14T08:27:36;1.80;;;1.53;;
703;SDS011;335;48.694;9.120;2022-08-14T08:30:05;2.30;;;2.20;;
703;SDS011;335;48.694;9.120;2022-08-14T08:32:37;1.90;;;1.80;;
703;SDS011;335;48.694;9.120;2022-08-14T08:35:03;2.33;;;1.60;;
703;SDS011;335;48.694;9.120;2022-08-14T08:37:29;1.60;;;1.50;;
703;SDS011;335;48.694;9.120;2022-08-14T08:39:59;1.50;;;1.50;;
703;SDS011;335;48.694;9.120;2022-08-14T08:42:24;1.43;;;1.40;;
703;SDS011;335;48.694;9.120;2022-08-14T08:44:53;1.77;;;1.50;;
703;SDS011;335;48.694;9.120;2022-08-14T08:47:21;1.80;;;1.70;;
703;SDS011;335;48.694;9.120;2022-08-14T08:49:47;1.90;;;1.80;;
703;SDS011;335;48.694;9.120;2022-08-14T08:52:12;1.70;;;1.60;;
703;SDS011;335;48.694;9.120;2022-08-14T08:54:38;1.80;;;1.70;;
703;SDS011;335;48.694;9.120;2022-08-14T08:57:09;1.87;;;1.77;;
703;SDS011;335;48.694;9.120;2022-08-14T08:59:36;2.17;;;1.60;;
703;SDS011;335;48.694;9.120;2022-08-14T09:02:02;1.90;;;1.80;;
703;SDS011;335;48.694;9.120;2022-08-14T09:04:39;1.90;;;1.80;;
703;SDS011;335;48.694;9.120;2022-08-14T09:07:06;2.00;;;1.60;;
703;SDS011;335;48.694;9.120;2022-08-14T09:09:32;2.17;;;1.97;;
703;SDS011;335;48.694;9.120;2022-08-14T09:11:58;1.97;;;1.87;;
703;SDS011;335;48.694;9.120;2022-08-14T09:14:27;2.50;;;2.00;;
703;SDS011;335;48.694;9.120;2022-08-14T09:16:54;2.00;;;1.90;;
703;SDS011;335;48.694;9.120;2022-08-14T09:19:21;1.77;;;1.77;;
703;SDS011;335;48.694;9.120;2022-08-14T09:21:47;1.80;;;1.30;;
703;SDS011;335;48.694;9.120;2022-08-14T09:24:12;1.60;;;1.60;;
703;SDS011;335;48.694;9.120;2022-08-14T09:26:40;2.00;;;1.80;;
703;SDS011;335;48.694;9.120;2022-08-14T09:29:07;1.70;;;1.63;;
703;SDS011;335;48.694;9.120;2022-08-14T09:31:34;1.30;;;1.20;;
703;SDS011;335;48.694;9.120;2022-08-14T09:39:40;3.97;;;1.80;;
703;SDS011;335;48.694;9.120;2022-08-14T09:45:15;1.40;;;1.40;;
703;SDS011;335;48.694;9.120;2022-08-14T09:47:52;1.87;;;1.80;;
703;SDS011;335;48.694;9.120;2022-08-14T09:50:29;1.90;;;1.53;;
703;SDS011;335;48.694;9.120;2022-08-14T09:55:22;1.80;;;1.70;;
703;SDS011;335;48.694;9.120;2022-08-14T09:57:50;1.90;;;1.80;;
703;SDS011;335;48.694;9.120;2022-08-14T10:00:16;1.67;;;1.43;;
703;SDS011;335;48.694;9.120;2022-08-14T10:02:55;2.50;;;2.37;;
703;SDS011;335;48.694;9.120;2022-08-14T10:05:27;1.93;;;1.53;;
703;SDS011;335;48.694;9.120;2022-08-14T10:07:57;1.87;;;1.77;;
703;SDS011;335;48.694;9.120;2022-08-14T10:10:32;2.07;;;1.97;;
703;SDS011;335;48.694;9.120;2022-08-14T10:12:58;2.20;;;2.10;;
703;SDS011;335;48.694;9.120;2022-08-14T10:15:26;1.50;;;1.40;;
703;SDS011;335;48.694;9.120;2022-08-14T10:18:10;1.83;;;1.73;;
703;SDS011;335;48.694;9.120;2022-08-14T10:20:50;2.10;;;2.00;;
703;SDS011;335;48.694;9.120;2022-08-14T10:23:23;2.10;;;2.00;;
703;SDS011;335;48.694;9.120;2022-08-14T10:26:02;1.47;;;1.47;;
703;SDS011;335;48.694;9.120;2022-08-14T10:28:36;2.03;;;1.93;;
703;SDS011;335;48.694;9.120;2022-08-14T10:31:03;1.57;;;1.47;;
703;SDS011;335;48.694;9.120;2022-08-14T10:33:29;1.73;;;1.63;;
703;SDS011;335;48.694;9.120;2022-08-14T10:35:56;1.60;;;1.50;;
703;SDS011;335;48.694;9.120;2022-08-14T10:38:34;1.30;;;1.30;;
703;SDS011;335;48.694;9.120;2022-08-14T10:41:14;1.60;;;1.50;;
703;SDS011;335;48.694;9.120;2022-08-14T10:43:41;1.77;;;1.77;;
703;SDS011;335;48.694;9.120;2022-08-14T10:46:11;2.30;;;2.10;;
703;SDS011;335;48.694;9.120;2022-08-14T10:48:38;3.47;;;3.17;;
703;SDS011;335;48.694;9.120;2022-08-14T10:51:03;1.40;;;1.40;;
703;SDS011;335;48.694;9.120;2022-08-14T10:53:30;1.70;;;1.60;;
703;SDS011;335;48.694;9.120;2022-08-14T10:55:59;1.50;;;1.37;;
703;SDS011;335;48.694;9.120;2022-08-14T10:58:28;1.50;;;1.40;;
703;SDS011;335;48.694;9.120;2022-08-14T11:00:57;2.50;;;2.40;;
703;SDS011;335;48.694;9.120;2022-08-14T11:03:24;1.80;;;1.70;;
703;SDS011;335;48.694;9.120;2022-08-14T11:05:50;2.10;;;1.90;;
703;SDS011;335;48.694;9.120;2022-08-14T11:08:17;2.90;;;2.70;;
703;SDS011;335;48.694;9.120;2022-08-14T11:10:54;2.50;;;2.40;;
703;SDS011;335;48.694;9.120;2022-08-14T11:13:21;2.70;;;2.27;;
703;SDS011;335;48.694;9.120;2022-08-14T11:15:48;3.60;;;1.60;;
703;SDS011;335;48.694;9.120;2022-08-14T11:18:15;2.10;;;2.00;;
703;SDS011;335;48.694;9.120;2022-08-14T11:20:44;2.13;;;1.87;;
703;SDS011;335;48.694;9.120;2022-08-14T11:23:12;2.03;;;1.83;;
703;SDS011;335;48.694;9.120;2022-08-14T11:25:39;1.90;;;1.80;;
703;SDS011;335;48.694;9.120;2022-08-14T11:28:08;2.10;;;1.90;;
703;SDS011;335;48.694;9.120;2022-08-14T11:30:34;1.70;;;1.60;;
703;SDS011;335;48.694;9.120;2022-08-14T11:33:04;2.17;;;2.07;;
703;SDS011;335;48.694;9.120;2022-08-14T11:35:31;1.93;;;1.80;;
703;SDS011;335;48.694;9.120;2022-08-14T11:37:57;3.83;;;2.07;;
703;SDS011;335;48.694;9.120;2022-08-14T11:40:28;1.60;;;1.53;;
703;SDS011;335;48.694;9.120;2022-08-14T11:43:03;2.13;;;2.03;;
703;SDS011;335;48.694;9.120;2022-08-14T11:45:31;1.90;;;1.80;;
703;SDS011;335;48.694;9.120;2022-08-14T11:47:58;1.60;;;1.50;;
703;SDS011;335;48.694;9.120;2022-08-14T11:50:26;1.63;;;1.63;;
703;SDS011;335;48.694;9.120;2022-08-14T11:52:54;2.37;;;2.17;;
703;SDS011;335;48.694;9.120;2022-08-14T11:55:22;4.07;;;1.75;;
703;SDS011;335;48.694;9.120;2022-08-14T11:57:57;1.90;;;1.80;;
703;SDS011;335;48.694;9.120;2022-08-14T12:00:25;2.30;;;1.73;;
703;SDS011;335;48.694;9.120;2022-08-14T12:02:51;1.90;;;1.80;;
703;SDS011;335;48.694;9.120;2022-08-14T12:08:12;1.50;;;1.40;;
703;SDS011;335;48.694;9.120;2022-08-14T12:10:38;1.70;;;1.60;;
703;SDS011;335;48.694;9.120;2022-08-14T12:15:41;1.10;;;1.10;;
703;SDS011;335;48.694;9.120;2022-08-14T12:18:08;1.40;;;1.30;;
703;SDS011;335;48.694;9.120;2022-08-14T12:20:34;1.43;;;1.20;;
703;SDS011;335;48.694;9.120;2022-08-14T12:23:05;1.45;;;1.10;;
703;SDS011;335;48.694;9.120;2022-08-14T12:25:32;1.27;;;1.27;;
703;SDS011;335;48.694;9.120;2022-08-14T12:28:00;1.40;;;1.30;;
703;SDS011;335;48.694;9.120;2022-08-14T12:33:06;1.43;;;1.10;;
703;SDS011;335;48.694;9.120;2022-08-14T12:35:44;1.20;;;1.20;;
703;SDS011;335;48.694;9.120;2022-08-14T12:38:10;1.20;;;1.10;;
703;SDS011;335;48.694;9.120;2022-08-14T12:40:46;1.37;;;1.27;;
703;SDS011;335;48.694;9.120;2022-08-14T12:43:13;1.20;;;1.10;;
703;SDS011;335;48.694;9.120;2022-08-14T12:45:44;1.73;;;1.63;;
703;SDS011;335;48.694;9.120;2022-08-14T12:48:13;1.67;;;1.57;;
703;SDS011;335;48.694;9.120;2022-08-14T12:50:40;1.23;;;1.23;;
703;SDS011;335;48.694;9.120;2022-08-14T12:53:07;2.13;;;1.10;;
703;SDS011;335;48.694;9.120;2022-08-14T12:55:33;1.30;;;1.10;;
703;SDS011;335;48.694;9.120;2022-08-14T12:58:03;1.40;;;1.30;;
703;SDS011;335;48.694;9.120;2022-08-14T13:00:31;1.10;;;1.10;;
703;SDS011;335;48.694;9.120;2022-08-14T13:02:59;0.90;;;0.80;;
703;SDS011;335;48.694;9.120;2022-08-14T13:05:29;1.30;;;1.20;;
703;SDS011;335;48.694;9.120;2022-08-14T13:07:57;1.50;;;1.40;;
703;SDS011;335;48.694;9.120;2022-08-14T13:10:24;1.27;;;0.93;;
703;SDS011;335;48.694;9.120;2022-08-14T13:12:50;1.40;;;1.30;;
703;SDS011;335;48.694;9.120;2022-08-14T13:15:19;1.30;;;1.30;;
703;SDS011;335;48.694;9.120;2022-08-14T13:17:45;2.07;;;1.20;;
703;SDS011;335;48.694;9.120;2022-08-14T13:20:15;1.10;;;1.10;;
703;SDS011;335;48.694;9.120;2022-08-14T13:22:42;1.50;;;1.40;;
703;SDS011;335;48.694;9.120;2022-08-14T13:25:13;1.20;;;1.10;;
703;SDS011;335;48.694;9.120;2022-08-14T13:27:40;0.90;;;0.90;;
703;SDS011;335;48.694;9.120;2022-08-14T13:30:08;1.30;;;1.20;;
703;SDS011;335;48.694;9.120;2022-08-14T13:32:34;1.17;;;1.10;;
703;SDS011;335;48.694;9.120;2022-08-14T13:35:03;1.17;;;1.17;;
703;SDS011;335;48.694;9.120;2022-08-14T13:37:29;1.33;;;1.33;;
703;SDS011;335;48.694;9.120;2022-08-14T13:39:55;3.50;;;0.97;;
703;SDS011;335;48.694;9.120;2022-08-14T13:42:20;1.07;;;1.07;;
703;SDS011;335;48.694;9.120;2022-08-14T13:44:50;1.30;;;1.30;;
703;SDS011;335;48.694;9.120;2022-08-14T13:47:27;1.37;;;1.27;;
703;SDS011;335;48.694;9.120;2022-08-14T13:49:54;1.27;;;1.20;;
703;SDS011;335;48.694;9.120;2022-08-14T13:52:24;1.10;;;1.10;;
703;SDS011;335;48.694;9.120;2022-08-14T13:54:51;0.93;;;0.93;;
703;SDS011;335;48.694;9.120;2022-08-14T13:57:18;1.00;;;1.00;;
703;SDS011;335;48.694;9.120;2022-08-14T13:59:44;1.30;;;1.20;;
703;SDS011;335;48.694;9.120;2022-08-14T14:02:14;1.00;;;1.00;;
703;SDS011;335;48.694;9.120;2022-08-14T14:04:42;0.90;;;0.90;;
703;SDS011;335;48.694;9.120;2022-08-14T14:07:09;1.50;;;1.40;;
703;SDS011;335;48.694;9.120;2022-08-14T14:09:37;0.93;;;0.93;;
703;SDS011;335;48.694;9.120;2022-08-14T14:12:04;1.17;;;1.07;;
703;SDS011;335;48.694;9.120;2022-08-14T14:14:32;1.00;;;1.00;;
703;SDS011;335;48.694;9.120;2022-08-14T14:16:57;1.43;;;1.20;;
703;SDS011;335;48.694;9.120;2022-08-14T14:19:24;1.40;;;1.10;;
703;SDS011;335;48.694;9.120;2022-08-14T14:21:51;0.97;;;0.97;;
703;SDS011;335;48.694;9.120;2022-08-14T14:24:19;1.40;;;1.30;;
703;SDS011;335;48.694;9.120;2022-08-14T14:26:45;1.50;;;1.40;;
703;SDS011;335;48.694;9.120;2022-08-14T14:29:11;1.80;;;1.67;;
703;SDS011;335;48.694;9.120;2022-08-14T14:31:38;1.90;;;1.80;;
703;SDS011;335;48.694;9.120;2022-08-14T14:34:04;1.50;;;1.40;;
703;SDS011;335;48.694;9.120;2022-08-14T14:36:30;1.30;;;1.20;;
703;SDS011;335;48.694;9.120;2022-08-14T14:39:06;2.33;;;1.63;;
703;SDS011;335;48.694;9.120;2022-08-14T14:41:33;2.10;;;1.90;;
703;SDS011;335;48.694;9.120;2022-08-14T14:44:02;1.60;;;1.40;;
703;SDS011;335;48.694;9.120;2022-08-14T14:46:30;1.60;;;1.50;;
703;SDS011;335;48.694;9.120;2022-08-14T14:48:59;1.97;;;1.77;;
703;SDS011;335;48.694;9.120;2022-08-14T14:51:25;2.33;;;1.83;;
703;SDS011;335;48.694;9.120;2022-08-14T14:53:50;1.90;;;1.80;;
703;SDS011;335;48.694;9.120;2022-08-14T14:56:16;1.87;;;1.77;;
703;SDS011;335;48.694;9.120;2022-08-14T14:58:43;1.87;;;1.77;;
703;SDS011;335;48.694;9.120;2022-08-14T15:01:10;2.37;;;2.27;;
703;SDS011;335;48.694;9.120;2022-08-14T15:03:36;2.40;;;2.30;;
703;SDS011;335;48.694;9.120;2022-08-14T15:06:03;2.27;;;2.17;;
703;SDS011;335;48.694;9.120;2022-08-14T15:08:29;2.07;;;1.97;;
703;SDS011;335;48.694;9.120;2022-08-14T15:10:55;2.50;;;2.30;;
703;SDS011;335;48.694;9.120;2022-08-14T15:13:21;2.13;;;2.03;;
703;SDS011;335;48.694;9.120;2022-08-14T15:15:47;2.50;;;2.40;;
703;SDS011;335;48.694;9.120;2022-08-14T15:18:12;2.17;;;1.97;;
703;SDS011;335;48.694;9.120;2022-08-14T15:20:38;1.63;;;1.53;;
703;SDS011;335;48.694;9.120;2022-08-14T15:23:03;2.70;;;1.87;;
703;SDS011;335;48.694;9.120;2022-08-14T15:25:30;2.33;;;2.23;;
703;SDS011;335;48.694;9.120;2022-08-14T15:27:58;2.00;;;1.90;;
703;SDS011;335;48.694;9.120;2022-08-14T15:30:25;1.47;;;1.47;;
703;SDS011;335;48.694;9.120;2022-08-14T15:32:52;2.13;;;2.03;;
703;SDS011;335;48.694;9.120;2022-08-14T15:35:19;2.10;;;2.00;;
703;SDS011;335;48.694;9.120;2022-08-14T15:37:46;1.83;;;1.73;;
703;SDS011;335;48.694;9.120;2022-08-14T15:40:12;2.03;;;1.93;;
703;SDS011;335;48.694;9.120;2022-08-14T15:42:38;2.00;;;1.90;;
703;SDS011;335;48.694;9.120;2022-08-14T15:45:04;2.53;;;2.33;;
703;SDS011;335;48.694;9.120;2022-08-14T15:47:31;2.13;;;2.00;;
703;SDS011;335;48.694;9.120;2022-08-14T15:49:57;2.20;;;2.10;;
703;SDS011;335;48.694;9.120;2022-08-14T15:52:23;2.10;;;1.90;;
703;SDS011;335;48.694;9.120;2022-08-14T15:54:48;2.27;;;2.17;;
703;SDS011;335;48.694;9.120;2022-08-14T15:57:14;2.43;;;2.23;;
703;SDS011;335;48.694;9.120;2022-08-14T15:59:39;2.03;;;1.93;;
703;SDS011;335;48.694;9.120;2022-08-14T16:02:23;2.30;;;2.20;;
703;SDS011;335;48.694;9.120;2022-08-14T16:04:49;2.33;;;2.23;;
703;SDS011;335;48.694;9.120;2022-08-14T16:07:14;2.70;;;2.50;;